sensor_id;sensor_type;location;lat;lon;timestamp;P1;durP1;ratioP1;P2;durP2;ratioP2
10659;SDS011;5378;53.206;13.316;2022-12-10T00:00:22;10.98;;;5.03;;
10659;SDS011;5378;53.206;13.316;2022-12-10T00:03:11;13.70;;;6.20;;
10659;SDS011;5378;53.206;13.316;2022-12-10T00:05:59;16.58;;;5.18;;
10659;SDS011;5378;53.206;13.316;2022-12-10T00:08:47;14.32;;;6.00;;
10659;SDS011;5378;53.206;13.316;2022-12-10T00:11:34;18.00;;;6.97;;
10659;SDS011;5378;53.206;13.316;2022-12-10T00:14:22;14.15;;;5.45;;
10659;SDS011;5378;53.206;13.316;2022-12-10T00:17:09;10.80;;;4.55;;
10659;SDS011;5378;53.206;13.316;2022-12-10T00:19:58;16.10;;;5.65;;
10659;SDS011;5378;53.206;13.316;2022-12-10T00:22:45;12.70;;;5.55;;
10659;SDS011;5378;53.206;13.316;2022-12-10T00:25:33;12.65;;;4.97;;
10659;SDS011;5378;53.206;13.316;2022-12-10T00:28:19;14.97;;;6.07;;
10659;SDS011;5378;53.206;13.316;2022-12-10T00:31:08;14.73;;;5.55;;
10659;SDS011;5378;53.206;13.316;2022-12-10T00:33:57;16.08;;;4.93;;
10659;SDS011;5378;53.206;13.316;2022-12-10T00:36:47;12.48;;;5.93;;
10659;SDS011;5378;53.206;13.316;2022-12-10T00:39:35;9.27;;;4.70;;
10659;SDS011;5378;53.206;13.316;2022-12-10T00:42:23;16.27;;;5.80;;
10659;SDS011;5378;53.206;13.316;2022-12-10T00:45:10;16.48;;;6.22;;
10659;SDS011;5378;53.206;13.316;2022-12-10T00:47:57;12.25;;;4.78;;
10659;SDS011;5378;53.206;13.316;2022-12-10T00:50:44;12.77;;;4.35;;
10659;SDS011;5378;53.206;13.316;2022-12-10T00:53:43;16.60;;;4.65;;
10659;SDS011;5378;53.206;13.316;2022-12-10T00:56:32;9.37;;;4.27;;
10659;SDS011;5378;53.206;13.316;2022-12-10T00:59:19;11.27;;;5.67;;
10659;SDS011;5378;53.206;13.316;2022-12-10T01:02:07;12.37;;;4.80;;
10659;SDS011;5378;53.206;13.316;2022-12-10T01:04:54;13.73;;;5.50;;
10659;SDS011;5378;53.206;13.316;2022-12-10T01:07:42;11.70;;;5.10;;
10659;SDS011;5378;53.206;13.316;2022-12-10T01:10:30;13.00;;;5.03;;
10659;SDS011;5378;53.206;13.316;2022-12-10T01:13:17;15.10;;;6.35;;
10659;SDS011;5378;53.206;13.316;2022-12-10T01:16:05;12.55;;;4.88;;
10659;SDS011;5378;53.206;13.316;2022-12-10T01:18:54;8.65;;;3.72;;
10659;SDS011;5378;53.206;13.316;2022-12-10T01:21:41;9.13;;;3.90;;
10659;SDS011;5378;53.206;13.316;2022-12-10T01:24:29;8.50;;;4.27;;
10659;SDS011;5378;53.206;13.316;2022-12-10T01:27:18;11.93;;;5.23;;
10659;SDS011;5378;53.206;13.316;2022-12-10T01:30:07;9.23;;;4.73;;
10659;SDS011;5378;53.206;13.316;2022-12-10T01:32:55;13.10;;;4.93;;
10659;SDS011;5378;53.206;13.316;2022-12-10T01:35:42;12.98;;;5.78;;
10659;SDS011;5378;53.206;13.316;2022-12-10T01:38:29;14.27;;;5.47;;
10659;SDS011;5378;53.206;13.316;2022-12-10T01:41:18;9.43;;;4.07;;
10659;SDS011;5378;53.206;13.316;2022-12-10T01:47:28;17.83;;;5.23;;
10659;SDS011;5378;53.206;13.316;2022-12-10T01:50:17;8.23;;;3.27;;
10659;SDS011;5378;53.206;13.316;2022-12-10T01:53:04;8.27;;;4.40;;
10659;SDS011;5378;53.206;13.316;2022-12-10T01:55:51;9.37;;;4.37;;
10659;SDS011;5378;53.206;13.316;2022-12-10T01:58:38;8.73;;;3.85;;
10659;SDS011;5378;53.206;13.316;2022-12-10T02:01:28;9.73;;;4.60;;
10659;SDS011;5378;53.206;13.316;2022-12-10T02:04:25;10.90;;;4.17;;
10659;SDS011;5378;53.206;13.316;2022-12-10T02:07:20;9.53;;;3.80;;
10659;SDS011;5378;53.206;13.316;2022-12-10T02:10:15;7.70;;;3.95;;
10659;SDS011;5378;53.206;13.316;2022-12-10T02:13:11;9.70;;;3.53;;
10659;SDS011;5378;53.206;13.316;2022-12-10T02:16:04;7.10;;;3.97;;
10659;SDS011;5378;53.206;13.316;2022-12-10T02:18:56;6.95;;;3.83;;
10659;SDS011;5378;53.206;13.316;2022-12-10T02:21:49;7.70;;;3.42;;
10659;SDS011;5378;53.206;13.316;2022-12-10T02:24:38;6.23;;;3.40;;
10659;SDS011;5378;53.206;13.316;2022-12-10T02:27:27;9.30;;;3.80;;
10659;SDS011;5378;53.206;13.316;2022-12-10T02:30:21;9.25;;;3.53;;
10659;SDS011;5378;53.206;13.316;2022-12-10T02:33:08;8.88;;;4.13;;
10659;SDS011;5378;53.206;13.316;2022-12-10T02:35:58;8.82;;;3.90;;
10659;SDS011;5378;53.206;13.316;2022-12-10T02:38:48;8.53;;;3.67;;
10659;SDS011;5378;53.206;13.316;2022-12-10T02:41:39;10.95;;;4.25;;
10659;SDS011;5378;53.206;13.316;2022-12-10T02:44:31;7.28;;;3.05;;
10659;SDS011;5378;53.206;13.316;2022-12-10T02:47:22;6.05;;;3.40;;
10659;SDS011;5378;53.206;13.316;2022-12-10T02:50:11;8.68;;;4.72;;
10659;SDS011;5378;53.206;13.316;2022-12-10T02:53:02;9.00;;;4.13;;
10659;SDS011;5378;53.206;13.316;2022-12-10T02:55:53;7.77;;;3.77;;
10659;SDS011;5378;53.206;13.316;2022-12-10T02:58:56;7.60;;;3.70;;
10659;SDS011;5378;53.206;13.316;2022-12-10T03:01:52;6.95;;;2.40;;
10659;SDS011;5378;53.206;13.316;2022-12-10T03:04:46;7.80;;;3.90;;
10659;SDS011;5378;53.206;13.316;2022-12-10T03:07:40;13.43;;;4.43;;
10659;SDS011;5378;53.206;13.316;2022-12-10T03:10:32;8.23;;;4.55;;
10659;SDS011;5378;53.206;13.316;2022-12-10T03:13:23;10.27;;;4.40;;
10659;SDS011;5378;53.206;13.316;2022-12-10T03:16:15;8.40;;;3.60;;
10659;SDS011;5378;53.206;13.316;2022-12-10T03:19:07;12.70;;;4.97;;
10659;SDS011;5378;53.206;13.316;2022-12-10T03:22:01;10.45;;;4.43;;
10659;SDS011;5378;53.206;13.316;2022-12-10T03:24:50;10.63;;;4.40;;
10659;SDS011;5378;53.206;13.316;2022-12-10T03:27:39;7.70;;;3.90;;
10659;SDS011;5378;53.206;13.316;2022-12-10T03:30:29;11.48;;;4.25;;
10659;SDS011;5378;53.206;13.316;2022-12-10T03:33:19;7.65;;;4.68;;
10659;SDS011;5378;53.206;13.316;2022-12-10T03:36:08;12.85;;;4.22;;
10659;SDS011;5378;53.206;13.316;2022-12-10T03:38:56;15.93;;;6.35;;
10659;SDS011;5378;53.206;13.316;2022-12-10T03:41:44;14.68;;;5.78;;
10659;SDS011;5378;53.206;13.316;2022-12-10T03:44:33;11.50;;;5.20;;
10659;SDS011;5378;53.206;13.316;2022-12-10T03:47:21;10.02;;;4.43;;
10659;SDS011;5378;53.206;13.316;2022-12-10T03:50:09;5.65;;;3.85;;
10659;SDS011;5378;53.206;13.316;2022-12-10T03:52:56;7.50;;;3.67;;
10659;SDS011;5378;53.206;13.316;2022-12-10T03:55:45;9.90;;;4.45;;
10659;SDS011;5378;53.206;13.316;2022-12-10T03:58:32;11.68;;;4.88;;
10659;SDS011;5378;53.206;13.316;2022-12-10T04:01:19;7.85;;;4.70;;
10659;SDS011;5378;53.206;13.316;2022-12-10T04:04:06;11.93;;;4.85;;
10659;SDS011;5378;53.206;13.316;2022-12-10T04:06:53;8.52;;;3.75;;
10659;SDS011;5378;53.206;13.316;2022-12-10T04:09:41;9.40;;;4.93;;
10659;SDS011;5378;53.206;13.316;2022-12-10T04:12:29;9.40;;;4.13;;
10659;SDS011;5378;53.206;13.316;2022-12-10T04:15:16;10.93;;;4.30;;
10659;SDS011;5378;53.206;13.316;2022-12-10T04:18:21;8.50;;;4.45;;
10659;SDS011;5378;53.206;13.316;2022-12-10T04:21:08;7.63;;;4.13;;
10659;SDS011;5378;53.206;13.316;2022-12-10T04:24:12;8.43;;;3.97;;
10659;SDS011;5378;53.206;13.316;2022-12-10T04:27:18;10.68;;;5.03;;
10659;SDS011;5378;53.206;13.316;2022-12-10T04:30:10;8.65;;;4.35;;
10659;SDS011;5378;53.206;13.316;2022-12-10T04:32:58;9.38;;;4.75;;
10659;SDS011;5378;53.206;13.316;2022-12-10T04:35:45;10.13;;;4.78;;
10659;SDS011;5378;53.206;13.316;2022-12-10T04:38:32;7.57;;;4.15;;
10659;SDS011;5378;53.206;13.316;2022-12-10T04:41:19;11.27;;;4.43;;
10659;SDS011;5378;53.206;13.316;2022-12-10T04:44:06;13.80;;;5.05;;
10659;SDS011;5378;53.206;13.316;2022-12-10T04:46:55;9.73;;;4.25;;
10659;SDS011;5378;53.206;13.316;2022-12-10T04:49:42;10.93;;;4.82;;
10659;SDS011;5378;53.206;13.316;2022-12-10T04:52:29;7.40;;;4.10;;
10659;SDS011;5378;53.206;13.316;2022-12-10T04:55:17;7.90;;;3.10;;
10659;SDS011;5378;53.206;13.316;2022-12-10T04:58:04;5.75;;;3.40;;
10659;SDS011;5378;53.206;13.316;2022-12-10T05:00:51;11.75;;;5.07;;
10659;SDS011;5378;53.206;13.316;2022-12-10T05:03:39;8.60;;;4.50;;
10659;SDS011;5378;53.206;13.316;2022-12-10T05:06:27;9.60;;;4.75;;
10659;SDS011;5378;53.206;13.316;2022-12-10T05:09:16;8.88;;;4.05;;
10659;SDS011;5378;53.206;13.316;2022-12-10T05:12:03;12.18;;;4.95;;
10659;SDS011;5378;53.206;13.316;2022-12-10T05:14:50;8.82;;;5.00;;
10659;SDS011;5378;53.206;13.316;2022-12-10T05:17:38;11.35;;;4.85;;
10659;SDS011;5378;53.206;13.316;2022-12-10T05:20:26;12.45;;;5.28;;
10659;SDS011;5378;53.206;13.316;2022-12-10T05:23:13;10.43;;;5.15;;
10659;SDS011;5378;53.206;13.316;2022-12-10T05:26:17;8.68;;;4.45;;
10659;SDS011;5378;53.206;13.316;2022-12-10T05:29:05;12.88;;;5.10;;
10659;SDS011;5378;53.206;13.316;2022-12-10T05:31:53;13.05;;;5.93;;
10659;SDS011;5378;53.206;13.316;2022-12-10T05:34:40;12.60;;;5.60;;
10659;SDS011;5378;53.206;13.316;2022-12-10T05:37:28;12.43;;;5.68;;
10659;SDS011;5378;53.206;13.316;2022-12-10T05:40:16;9.80;;;5.40;;
10659;SDS011;5378;53.206;13.316;2022-12-10T05:43:03;12.32;;;6.55;;
10659;SDS011;5378;53.206;13.316;2022-12-10T05:45:50;12.25;;;5.15;;
10659;SDS011;5378;53.206;13.316;2022-12-10T05:48:37;10.43;;;5.22;;
10659;SDS011;5378;53.206;13.316;2022-12-10T05:51:25;10.27;;;4.90;;
10659;SDS011;5378;53.206;13.316;2022-12-10T05:54:16;9.75;;;4.57;;
10659;SDS011;5378;53.206;13.316;2022-12-10T05:57:03;16.40;;;6.15;;
10659;SDS011;5378;53.206;13.316;2022-12-10T05:59:50;12.90;;;5.68;;
10659;SDS011;5378;53.206;13.316;2022-12-10T06:02:37;15.98;;;7.03;;
10659;SDS011;5378;53.206;13.316;2022-12-10T06:05:24;12.10;;;5.97;;
10659;SDS011;5378;53.206;13.316;2022-12-10T06:08:12;17.85;;;5.28;;
10659;SDS011;5378;53.206;13.316;2022-12-10T06:11:01;9.05;;;4.97;;
10659;SDS011;5378;53.206;13.316;2022-12-10T06:13:49;13.15;;;4.90;;
10659;SDS011;5378;53.206;13.316;2022-12-10T06:16:39;8.40;;;5.05;;
10659;SDS011;5378;53.206;13.316;2022-12-10T06:19:27;10.10;;;4.78;;
10659;SDS011;5378;53.206;13.316;2022-12-10T06:22:14;8.40;;;4.75;;
10659;SDS011;5378;53.206;13.316;2022-12-10T06:25:01;10.63;;;4.72;;
10659;SDS011;5378;53.206;13.316;2022-12-10T06:27:51;28.75;;;5.20;;
10659;SDS011;5378;53.206;13.316;2022-12-10T06:30:39;14.43;;;5.15;;
10659;SDS011;5378;53.206;13.316;2022-12-10T06:33:26;11.23;;;5.00;;
10659;SDS011;5378;53.206;13.316;2022-12-10T06:36:15;17.42;;;5.43;;
10659;SDS011;5378;53.206;13.316;2022-12-10T06:39:03;15.10;;;4.43;;
10659;SDS011;5378;53.206;13.316;2022-12-10T06:41:50;13.57;;;5.50;;
10659;SDS011;5378;53.206;13.316;2022-12-10T06:44:42;10.43;;;5.30;;
10659;SDS011;5378;53.206;13.316;2022-12-10T06:47:29;14.60;;;4.45;;
10659;SDS011;5378;53.206;13.316;2022-12-10T06:50:16;15.00;;;5.07;;
10659;SDS011;5378;53.206;13.316;2022-12-10T06:53:03;12.70;;;6.43;;
10659;SDS011;5378;53.206;13.316;2022-12-10T06:55:50;15.15;;;5.47;;
10659;SDS011;5378;53.206;13.316;2022-12-10T06:58:38;12.93;;;5.47;;
10659;SDS011;5378;53.206;13.316;2022-12-10T07:01:27;15.38;;;6.50;;
10659;SDS011;5378;53.206;13.316;2022-12-10T07:04:14;22.48;;;6.35;;
10659;SDS011;5378;53.206;13.316;2022-12-10T07:07:01;13.65;;;6.70;;
10659;SDS011;5378;53.206;13.316;2022-12-10T07:09:52;29.25;;;9.70;;
10659;SDS011;5378;53.206;13.316;2022-12-10T07:12:39;18.85;;;8.23;;
10659;SDS011;5378;53.206;13.316;2022-12-10T07:15:27;20.77;;;7.47;;
10659;SDS011;5378;53.206;13.316;2022-12-10T07:18:15;248.55;;;52.67;;
10659;SDS011;5378;53.206;13.316;2022-12-10T07:21:03;199.82;;;45.47;;
10659;SDS011;5378;53.206;13.316;2022-12-10T07:24:00;195.60;;;45.50;;
10659;SDS011;5378;53.206;13.316;2022-12-10T07:26:48;53.72;;;18.65;;
10659;SDS011;5378;53.206;13.316;2022-12-10T07:29:36;40.88;;;14.80;;
10659;SDS011;5378;53.206;13.316;2022-12-10T07:32:23;32.25;;;11.95;;
10659;SDS011;5378;53.206;13.316;2022-12-10T07:35:11;35.80;;;11.30;;
10659;SDS011;5378;53.206;13.316;2022-12-10T07:37:58;16.05;;;9.05;;
10659;SDS011;5378;53.206;13.316;2022-12-10T07:40:45;18.83;;;8.75;;
10659;SDS011;5378;53.206;13.316;2022-12-10T07:43:33;20.58;;;7.95;;
10659;SDS011;5378;53.206;13.316;2022-12-10T07:46:22;15.65;;;8.18;;
10659;SDS011;5378;53.206;13.316;2022-12-10T07:49:10;15.30;;;7.10;;
10659;SDS011;5378;53.206;13.316;2022-12-10T07:51:59;17.17;;;9.30;;
10659;SDS011;5378;53.206;13.316;2022-12-10T07:54:46;15.13;;;6.90;;
10659;SDS011;5378;53.206;13.316;2022-12-10T07:57:34;21.50;;;8.60;;
10659;SDS011;5378;53.206;13.316;2022-12-10T08:00:21;17.23;;;8.17;;
10659;SDS011;5378;53.206;13.316;2022-12-10T08:03:08;22.27;;;9.35;;
10659;SDS011;5378;53.206;13.316;2022-12-10T08:06:01;19.52;;;8.13;;
10659;SDS011;5378;53.206;13.316;2022-12-10T08:08:51;17.15;;;7.53;;
10659;SDS011;5378;53.206;13.316;2022-12-10T08:11:39;15.68;;;6.70;;
10659;SDS011;5378;53.206;13.316;2022-12-10T08:14:26;11.43;;;6.65;;
10659;SDS011;5378;53.206;13.316;2022-12-10T08:17:15;18.10;;;6.80;;
10659;SDS011;5378;53.206;13.316;2022-12-10T08:20:02;14.27;;;7.10;;
10659;SDS011;5378;53.206;13.316;2022-12-10T08:22:50;17.15;;;6.15;;
10659;SDS011;5378;53.206;13.316;2022-12-10T08:25:39;19.70;;;7.15;;
10659;SDS011;5378;53.206;13.316;2022-12-10T08:28:26;11.57;;;5.90;;
10659;SDS011;5378;53.206;13.316;2022-12-10T08:31:13;24.53;;;7.27;;
10659;SDS011;5378;53.206;13.316;2022-12-10T08:34:01;18.98;;;6.30;;
10659;SDS011;5378;53.206;13.316;2022-12-10T08:36:50;16.87;;;7.77;;
10659;SDS011;5378;53.206;13.316;2022-12-10T08:39:37;16.13;;;6.30;;
10659;SDS011;5378;53.206;13.316;2022-12-10T08:42:27;21.07;;;8.67;;
10659;SDS011;5378;53.206;13.316;2022-12-10T08:45:14;21.73;;;8.85;;
10659;SDS011;5378;53.206;13.316;2022-12-10T08:48:02;18.07;;;9.00;;
10659;SDS011;5378;53.206;13.316;2022-12-10T08:50:49;22.27;;;9.35;;
10659;SDS011;5378;53.206;13.316;2022-12-10T08:53:36;25.37;;;10.80;;
10659;SDS011;5378;53.206;13.316;2022-12-10T08:56:23;24.00;;;10.57;;
10659;SDS011;5378;53.206;13.316;2022-12-10T08:59:11;23.47;;;9.07;;
10659;SDS011;5378;53.206;13.316;2022-12-10T09:01:58;15.93;;;7.83;;
10659;SDS011;5378;53.206;13.316;2022-12-10T09:04:46;19.83;;;9.30;;
10659;SDS011;5378;53.206;13.316;2022-12-10T09:07:35;19.45;;;7.88;;
10659;SDS011;5378;53.206;13.316;2022-12-10T09:10:22;15.87;;;7.70;;
10659;SDS011;5378;53.206;13.316;2022-12-10T09:13:09;20.20;;;9.63;;
10659;SDS011;5378;53.206;13.316;2022-12-10T09:15:57;26.20;;;8.83;;
10659;SDS011;5378;53.206;13.316;2022-12-10T09:18:44;19.27;;;9.23;;
10659;SDS011;5378;53.206;13.316;2022-12-10T09:21:32;25.13;;;10.37;;
10659;SDS011;5378;53.206;13.316;2022-12-10T09:24:19;18.43;;;8.80;;
10659;SDS011;5378;53.206;13.316;2022-12-10T09:27:06;21.97;;;10.17;;
10659;SDS011;5378;53.206;13.316;2022-12-10T09:29:53;16.00;;;8.33;;
10659;SDS011;5378;53.206;13.316;2022-12-10T09:32:42;14.90;;;6.43;;
10659;SDS011;5378;53.206;13.316;2022-12-10T09:35:29;15.20;;;6.23;;
10659;SDS011;5378;53.206;13.316;2022-12-10T09:38:16;18.43;;;7.50;;
10659;SDS011;5378;53.206;13.316;2022-12-10T09:41:04;17.00;;;7.70;;
10659;SDS011;5378;53.206;13.316;2022-12-10T09:43:58;16.30;;;7.17;;
10659;SDS011;5378;53.206;13.316;2022-12-10T09:46:50;23.27;;;8.00;;
10659;SDS011;5378;53.206;13.316;2022-12-10T09:49:44;21.03;;;8.20;;
10659;SDS011;5378;53.206;13.316;2022-12-10T09:52:42;16.40;;;7.57;;
10659;SDS011;5378;53.206;13.316;2022-12-10T09:55:34;16.53;;;8.37;;
10659;SDS011;5378;53.206;13.316;2022-12-10T09:58:24;13.43;;;7.87;;
10659;SDS011;5378;53.206;13.316;2022-12-10T10:01:15;17.73;;;7.13;;
10659;SDS011;5378;53.206;13.316;2022-12-10T10:04:06;23.53;;;8.70;;
10659;SDS011;5378;53.206;13.316;2022-12-10T10:06:54;14.53;;;7.70;;
10659;SDS011;5378;53.206;13.316;2022-12-10T10:09:42;17.07;;;7.53;;
10659;SDS011;5378;53.206;13.316;2022-12-10T10:12:30;14.00;;;7.00;;
10659;SDS011;5378;53.206;13.316;2022-12-10T10:15:21;17.07;;;6.90;;
10659;SDS011;5378;53.206;13.316;2022-12-10T10:18:13;37.73;;;12.83;;
10659;SDS011;5378;53.206;13.316;2022-12-10T10:21:04;35.90;;;11.07;;
10659;SDS011;5378;53.206;13.316;2022-12-10T10:23:55;28.30;;;10.10;;
10659;SDS011;5378;53.206;13.316;2022-12-10T10:26:43;25.83;;;10.50;;
10659;SDS011;5378;53.206;13.316;2022-12-10T10:29:31;29.30;;;9.23;;
10659;SDS011;5378;53.206;13.316;2022-12-10T10:32:19;25.53;;;9.60;;
10659;SDS011;5378;53.206;13.316;2022-12-10T10:35:09;20.20;;;7.03;;
10659;SDS011;5378;53.206;13.316;2022-12-10T10:38:08;17.90;;;7.70;;
10659;SDS011;5378;53.206;13.316;2022-12-10T10:41:04;21.80;;;7.50;;
10659;SDS011;5378;53.206;13.316;2022-12-10T10:43:53;18.30;;;7.60;;
10659;SDS011;5378;53.206;13.316;2022-12-10T10:46:48;13.77;;;7.73;;
10659;SDS011;5378;53.206;13.316;2022-12-10T10:49:36;14.20;;;7.10;;
10659;SDS011;5378;53.206;13.316;2022-12-10T10:52:32;18.67;;;7.63;;
10659;SDS011;5378;53.206;13.316;2022-12-10T10:55:30;17.63;;;7.17;;
10659;SDS011;5378;53.206;13.316;2022-12-10T10:58:23;14.90;;;7.43;;
10659;SDS011;5378;53.206;13.316;2022-12-10T11:01:11;16.03;;;7.03;;
10659;SDS011;5378;53.206;13.316;2022-12-10T11:03:59;11.97;;;5.70;;
10659;SDS011;5378;53.206;13.316;2022-12-10T11:06:46;32.50;;;7.40;;
10659;SDS011;5378;53.206;13.316;2022-12-10T11:09:34;17.00;;;8.90;;
10659;SDS011;5378;53.206;13.316;2022-12-10T11:12:27;17.33;;;6.60;;
10659;SDS011;5378;53.206;13.316;2022-12-10T11:15:30;20.70;;;7.37;;
10659;SDS011;5378;53.206;13.316;2022-12-10T11:18:22;19.43;;;6.90;;
10659;SDS011;5378;53.206;13.316;2022-12-10T11:21:16;13.77;;;7.07;;
10659;SDS011;5378;53.206;13.316;2022-12-10T11:24:09;20.03;;;7.40;;
10659;SDS011;5378;53.206;13.316;2022-12-10T11:26:59;22.43;;;6.97;;
10659;SDS011;5378;53.206;13.316;2022-12-10T11:29:52;16.47;;;6.70;;
10659;SDS011;5378;53.206;13.316;2022-12-10T11:33:01;21.37;;;8.07;;
10659;SDS011;5378;53.206;13.316;2022-12-10T11:36:04;19.93;;;7.63;;
10659;SDS011;5378;53.206;13.316;2022-12-10T11:39:02;15.60;;;6.80;;
10659;SDS011;5378;53.206;13.316;2022-12-10T11:42:02;20.50;;;7.90;;
10659;SDS011;5378;53.206;13.316;2022-12-10T11:44:56;16.40;;;6.47;;
10659;SDS011;5378;53.206;13.316;2022-12-10T11:47:51;21.07;;;6.33;;
10659;SDS011;5378;53.206;13.316;2022-12-10T11:50:52;21.17;;;7.00;;
10659;SDS011;5378;53.206;13.316;2022-12-10T11:53:50;17.97;;;8.40;;
10659;SDS011;5378;53.206;13.316;2022-12-10T11:56:48;17.63;;;7.47;;
10659;SDS011;5378;53.206;13.316;2022-12-10T11:59:42;23.83;;;8.70;;
10659;SDS011;5378;53.206;13.316;2022-12-10T12:06:06;28.30;;;8.53;;
10659;SDS011;5378;53.206;13.316;2022-12-10T12:09:05;31.53;;;8.70;;
10659;SDS011;5378;53.206;13.316;2022-12-10T12:12:04;25.73;;;7.43;;
10659;SDS011;5378;53.206;13.316;2022-12-10T12:15:02;26.80;;;9.03;;
10659;SDS011;5378;53.206;13.316;2022-12-10T12:18:00;23.60;;;9.07;;
10659;SDS011;5378;53.206;13.316;2022-12-10T12:20:52;25.23;;;7.10;;
10659;SDS011;5378;53.206;13.316;2022-12-10T12:23:45;28.10;;;7.73;;
10659;SDS011;5378;53.206;13.316;2022-12-10T12:26:38;34.00;;;8.13;;
10659;SDS011;5378;53.206;13.316;2022-12-10T12:29:28;51.83;;;10.40;;
10659;SDS011;5378;53.206;13.316;2022-12-10T12:32:23;23.77;;;7.00;;
10659;SDS011;5378;53.206;13.316;2022-12-10T12:35:14;32.17;;;7.90;;
10659;SDS011;5378;53.206;13.316;2022-12-10T12:38:06;42.20;;;8.17;;
10659;SDS011;5378;53.206;13.316;2022-12-10T12:41:12;37.20;;;10.97;;
10659;SDS011;5378;53.206;13.316;2022-12-10T12:44:03;33.23;;;11.27;;
10659;SDS011;5378;53.206;13.316;2022-12-10T12:46:56;32.60;;;7.67;;
10659;SDS011;5378;53.206;13.316;2022-12-10T12:49:49;29.77;;;7.90;;
10659;SDS011;5378;53.206;13.316;2022-12-10T12:52:38;20.80;;;7.80;;
10659;SDS011;5378;53.206;13.316;2022-12-10T12:55:31;32.77;;;10.60;;
10659;SDS011;5378;53.206;13.316;2022-12-10T12:58:36;32.07;;;10.13;;
10659;SDS011;5378;53.206;13.316;2022-12-10T13:01:28;37.07;;;11.07;;
10659;SDS011;5378;53.206;13.316;2022-12-10T13:04:20;28.70;;;10.27;;
10659;SDS011;5378;53.206;13.316;2022-12-10T13:07:09;43.13;;;10.03;;
10659;SDS011;5378;53.206;13.316;2022-12-10T13:10:22;36.23;;;11.27;;
10659;SDS011;5378;53.206;13.316;2022-12-10T13:13:17;31.53;;;10.43;;
10659;SDS011;5378;53.206;13.316;2022-12-10T13:19:34;35.20;;;10.40;;
10659;SDS011;5378;53.206;13.316;2022-12-10T13:22:40;35.93;;;10.87;;
10659;SDS011;5378;53.206;13.316;2022-12-10T13:25:37;35.20;;;10.50;;
10659;SDS011;5378;53.206;13.316;2022-12-10T13:28:31;34.17;;;11.33;;
10659;SDS011;5378;53.206;13.316;2022-12-10T13:31:34;31.90;;;9.73;;
10659;SDS011;5378;53.206;13.316;2022-12-10T13:34:29;62.73;;;10.67;;
10659;SDS011;5378;53.206;13.316;2022-12-10T13:37:27;44.10;;;12.37;;
10659;SDS011;5378;53.206;13.316;2022-12-10T13:40:23;48.70;;;12.83;;
10659;SDS011;5378;53.206;13.316;2022-12-10T13:43:23;32.83;;;12.37;;
10659;SDS011;5378;53.206;13.316;2022-12-10T13:46:31;37.30;;;11.87;;
10659;SDS011;5378;53.206;13.316;2022-12-10T13:49:21;27.67;;;10.90;;
10659;SDS011;5378;53.206;13.316;2022-12-10T13:52:14;41.70;;;13.63;;
10659;SDS011;5378;53.206;13.316;2022-12-10T13:55:19;40.70;;;13.83;;
10659;SDS011;5378;53.206;13.316;2022-12-10T13:58:18;44.77;;;12.53;;
10659;SDS011;5378;53.206;13.316;2022-12-10T14:01:15;46.33;;;13.63;;
10659;SDS011;5378;53.206;13.316;2022-12-10T14:04:22;49.13;;;13.87;;
10659;SDS011;5378;53.206;13.316;2022-12-10T14:07:29;57.73;;;13.47;;
10659;SDS011;5378;53.206;13.316;2022-12-10T14:10:17;33.57;;;11.97;;
10659;SDS011;5378;53.206;13.316;2022-12-10T14:13:05;35.40;;;11.20;;
10659;SDS011;5378;53.206;13.316;2022-12-10T14:15:53;52.25;;;12.88;;
10659;SDS011;5378;53.206;13.316;2022-12-10T14:18:44;36.67;;;11.60;;
10659;SDS011;5378;53.206;13.316;2022-12-10T14:21:39;39.27;;;12.03;;
10659;SDS011;5378;53.206;13.316;2022-12-10T14:24:30;48.97;;;12.52;;
10659;SDS011;5378;53.206;13.316;2022-12-10T14:27:19;43.78;;;12.32;;
10659;SDS011;5378;53.206;13.316;2022-12-10T14:30:15;32.08;;;12.00;;
10659;SDS011;5378;53.206;13.316;2022-12-10T14:33:03;38.73;;;11.07;;
10659;SDS011;5378;53.206;13.316;2022-12-10T14:35:51;38.80;;;10.50;;
10659;SDS011;5378;53.206;13.316;2022-12-10T14:38:39;45.90;;;12.30;;
10659;SDS011;5378;53.206;13.316;2022-12-10T14:41:29;36.87;;;11.70;;
10659;SDS011;5378;53.206;13.316;2022-12-10T14:44:20;41.92;;;13.73;;
10659;SDS011;5378;53.206;13.316;2022-12-10T14:47:13;31.47;;;10.17;;
10659;SDS011;5378;53.206;13.316;2022-12-10T14:50:01;32.80;;;11.43;;
10659;SDS011;5378;53.206;13.316;2022-12-10T14:52:49;41.67;;;11.23;;
10659;SDS011;5378;53.206;13.316;2022-12-10T14:55:38;29.80;;;10.97;;
10659;SDS011;5378;53.206;13.316;2022-12-10T14:58:28;39.30;;;11.70;;
10659;SDS011;5378;53.206;13.316;2022-12-10T15:01:24;37.30;;;10.00;;
10659;SDS011;5378;53.206;13.316;2022-12-10T15:04:15;30.23;;;10.50;;
10659;SDS011;5378;53.206;13.316;2022-12-10T15:07:10;34.67;;;11.70;;
10659;SDS011;5378;53.206;13.316;2022-12-10T15:09:59;40.97;;;16.70;;
10659;SDS011;5378;53.206;13.316;2022-12-10T15:12:49;40.33;;;14.80;;
10659;SDS011;5378;53.206;13.316;2022-12-10T15:15:39;39.17;;;13.50;;
10659;SDS011;5378;53.206;13.316;2022-12-10T15:18:28;40.23;;;14.80;;
10659;SDS011;5378;53.206;13.316;2022-12-10T15:21:19;38.33;;;9.90;;
10659;SDS011;5378;53.206;13.316;2022-12-10T15:24:11;34.47;;;12.37;;
10659;SDS011;5378;53.206;13.316;2022-12-10T15:27:02;30.93;;;10.70;;
10659;SDS011;5378;53.206;13.316;2022-12-10T15:30:20;25.27;;;9.63;;
10659;SDS011;5378;53.206;13.316;2022-12-10T15:33:22;33.30;;;12.40;;
10659;SDS011;5378;53.206;13.316;2022-12-10T15:36:18;33.80;;;9.73;;
10659;SDS011;5378;53.206;13.316;2022-12-10T15:39:12;34.00;;;9.13;;
10659;SDS011;5378;53.206;13.316;2022-12-10T15:42:04;40.00;;;11.67;;
10659;SDS011;5378;53.206;13.316;2022-12-10T15:44:54;39.07;;;11.20;;
10659;SDS011;5378;53.206;13.316;2022-12-10T15:47:43;34.93;;;10.23;;
10659;SDS011;5378;53.206;13.316;2022-12-10T15:50:31;42.63;;;12.93;;
10659;SDS011;5378;53.206;13.316;2022-12-10T15:53:21;41.60;;;13.70;;
10659;SDS011;5378;53.206;13.316;2022-12-10T15:56:16;30.30;;;13.03;;
10659;SDS011;5378;53.206;13.316;2022-12-10T15:59:04;36.73;;;11.40;;
10659;SDS011;5378;53.206;13.316;2022-12-10T16:01:51;30.13;;;10.20;;
10659;SDS011;5378;53.206;13.316;2022-12-10T16:04:38;36.57;;;10.97;;
10659;SDS011;5378;53.206;13.316;2022-12-10T16:07:26;34.20;;;12.03;;
10659;SDS011;5378;53.206;13.316;2022-12-10T16:10:15;36.37;;;12.10;;
10659;SDS011;5378;53.206;13.316;2022-12-10T16:13:03;41.13;;;14.43;;
10659;SDS011;5378;53.206;13.316;2022-12-10T16:15:53;35.20;;;11.73;;
10659;SDS011;5378;53.206;13.316;2022-12-10T16:18:42;31.00;;;10.93;;
10659;SDS011;5378;53.206;13.316;2022-12-10T16:21:30;29.70;;;11.43;;
10659;SDS011;5378;53.206;13.316;2022-12-10T16:24:18;33.90;;;10.80;;
10659;SDS011;5378;53.206;13.316;2022-12-10T16:27:08;25.50;;;10.90;;
10659;SDS011;5378;53.206;13.316;2022-12-10T16:29:58;30.87;;;11.53;;
10659;SDS011;5378;53.206;13.316;2022-12-10T16:32:45;24.97;;;10.03;;
10659;SDS011;5378;53.206;13.316;2022-12-10T16:35:33;49.30;;;16.20;;
10659;SDS011;5378;53.206;13.316;2022-12-10T16:38:20;40.73;;;14.97;;
10659;SDS011;5378;53.206;13.316;2022-12-10T16:41:17;47.50;;;12.40;;
10659;SDS011;5378;53.206;13.316;2022-12-10T16:44:07;33.83;;;10.20;;
10659;SDS011;5378;53.206;13.316;2022-12-10T16:46:55;50.30;;;14.10;;
10659;SDS011;5378;53.206;13.316;2022-12-10T16:49:44;33.17;;;12.37;;
10659;SDS011;5378;53.206;13.316;2022-12-10T16:52:32;31.03;;;11.77;;
10659;SDS011;5378;53.206;13.316;2022-12-10T16:55:20;35.83;;;12.30;;
10659;SDS011;5378;53.206;13.316;2022-12-10T16:58:10;38.17;;;13.17;;
10659;SDS011;5378;53.206;13.316;2022-12-10T17:00:59;39.03;;;14.47;;